Time;durP1;ratioP1;P1;durP2;ratioP2;P2;SDS_P1;SDS_P2;PMS_P1;PMS_P2;Temp;Humidity;BMP_temperature;BMP_pressure;BME280_temperature;BME280_humidity;BME280_pressure;Samples;Min_cycle;Max_cycle;Signal;HPM_P1;HPM_P2
2021/04/27 00:02:01;;;;;;;;;;;8.10;26.30;;;;;;5056434;28;20301;-81
2021/04/27 00:04:29;;;;;;;;;;;8.10;26.30;;;;;;5057124;28;19958;-80
2021/04/27 00:06:54;;;;;;;;;;;8.10;26.30;;;;;;5054442;28;20347;-81
2021/04/27 00:09:20;;;;;;;;;;;8.20;26.40;;;;;;5055258;28;19916;-81
2021/04/27 00:11:45;;;;;;;;;;;8.20;26.40;;;;;;5054934;28;19916;-81
2021/04/27 00:14:11;;;;;;;;;;;8.20;26.40;;;;;;5054681;28;20011;-81
2021/04/27 00:16:36;;;;;;;;;;;8.20;26.50;;;;;;5056441;28;20357;-82
2021/04/27 00:19:02;;;;;;;;;;;8.20;26.50;;;;;;5054724;28;19980;-81
2021/04/27 00:21:28;;;;;;;;;;;8.20;26.50;;;;;;5055779;28;19913;-80
2021/04/27 00:23:53;;;;;;;;;;;8.20;26.50;;;;;;5054968;28;19912;-80
2021/04/27 00:26:19;;;;;;;;;;;8.20;26.50;;;;;;5049508;28;19914;-80
2021/04/27 00:28:44;;;;;;;;;;;8.20;26.60;;;;;;5052243;28;20323;-82
2021/04/27 00:31:10;;;;;;;;;;;8.20;26.60;;;;;;5055088;28;19924;-80
2021/04/27 00:33:35;;;;;;;;;;;8.10;26.50;;;;;;5056312;28;19913;-81
2021/04/27 00:36:01;;;;;;;;;;;8.10;26.60;;;;;;5055229;28;19920;-81
2021/04/27 00:38:27;;;;;;;;;;;8.10;26.60;;;;;;5056517;28;19935;-82
2021/04/27 00:40:52;;;;;;;;;;;8.00;26.60;;;;;;5055656;28;20036;-81
2021/04/27 00:43:18;;;;;;;;;;;8.00;26.60;;;;;;5056411;28;20050;-81
2021/04/27 00:45:44;;;;;;;;;;;8.00;26.70;;;;;;5053858;28;19920;-80
2021/04/27 00:48:09;;;;;;;;;;;7.90;26.70;;;;;;5056149;28;20383;-80
2021/04/27 00:50:37;;;;;;;;;;;7.90;26.70;;;;;;5055552;28;19920;-82
2021/04/27 00:53:04;;;;;;;;;;;7.90;26.70;;;;;;5055392;28;19928;-81
2021/04/27 00:55:30;;;;;;;;;;;7.90;26.80;;;;;;5053340;28;20067;-80
2021/04/27 00:57:59;;;;;;;;;;;7.90;26.80;;;;;;5054000;28;20011;-79
2021/04/27 01:00:25;;;;;;;;;;;7.80;26.80;;;;;;5056811;28;19916;-82
2021/04/27 01:02:51;;;;;;;;;;;7.80;26.80;;;;;;5054798;28;19913;-81
2021/04/27 01:05:18;;;;;;;;;;;7.80;26.90;;;;;;5054206;28;19913;-81
2021/04/27 01:07:58;;;;;;;;;;;7.70;26.90;;;;;;5053607;28;19924;-82
2021/04/27 01:10:27;;;;;;;;;;;7.60;26.90;;;;;;5053665;28;20445;-81
2021/04/27 01:12:59;;;;;;;;;;;7.60;27.00;;;;;;5052359;28;20402;-81
2021/04/27 01:15:27;;;;;;;;;;;7.50;27.00;;;;;;5056545;28;19978;-81
2021/04/27 01:17:53;;;;;;;;;;;7.40;27.00;;;;;;5052645;28;19913;-80
2021/04/27 01:20:23;;;;;;;;;;;7.40;27.00;;;;;;5056491;28;19909;-81
2021/04/27 01:22:55;;;;;;;;;;;7.30;27.00;;;;;;5055207;28;19913;-81
2021/04/27 01:25:39;;;;;;;;;;;7.30;27.10;;;;;;5048628;28;19935;-80
2021/04/27 01:28:06;;;;;;;;;;;7.30;27.10;;;;;;5043124;28;19913;-81
2021/04/27 01:30:37;;;;;;;;;;;7.20;27.10;;;;;;5046368;28;19932;-82
2021/04/27 01:33:05;;;;;;;;;;;7.20;27.20;;;;;;5055035;28;19913;-81
2021/04/27 01:35:31;;;;;;;;;;;7.10;27.20;;;;;;5057359;28;19913;-81
2021/04/27 01:37:56;;;;;;;;;;;7.10;27.30;;;;;;5060523;28;19920;-81
2021/04/27 01:40:22;;;;;;;;;;;7.10;27.30;;;;;;5065089;28;19971;-80
2021/04/27 01:42:47;;;;;;;;;;;7.00;27.30;;;;;;5059470;28;19920;-80
2021/04/27 01:45:14;;;;;;;;;;;7.00;27.40;;;;;;5059240;28;19978;-82
2021/04/27 01:47:41;;;;;;;;;;;7.00;27.40;;;;;;5058410;28;20010;-81
2021/04/27 01:50:07;;;;;;;;;;;6.90;27.50;;;;;;5056688;28;20339;-81
2021/04/27 01:52:33;;;;;;;;;;;6.90;27.50;;;;;;5058609;28;20368;-82
2021/04/27 01:54:59;;;;;;;;;;;6.90;27.50;;;;;;5059439;28;19920;-80
2021/04/27 01:57:24;;;;;;;;;;;6.80;27.50;;;;;;5057789;28;20372;-80
2021/04/27 01:59:52;;;;;;;;;;;6.80;27.50;;;;;;5057255;28;19913;-80
2021/04/27 02:02:18;;;;;;;;;;;6.70;27.50;;;;;;5059095;28;19958;-81
2021/04/27 02:04:43;;;;;;;;;;;6.70;27.60;;;;;;5058819;28;19913;-81
2021/04/27 02:07:09;;;;;;;;;;;6.60;27.70;;;;;;5057300;28;19925;-80
2021/04/27 02:09:35;;;;;;;;;;;6.50;27.60;;;;;;5057896;28;19923;-81
2021/04/27 02:12:00;;;;;;;;;;;6.50;27.70;;;;;;5058995;28;19912;-80
2021/04/27 02:14:26;;;;;;;;;;;6.50;27.70;;;;;;5050271;28;19917;-81
2021/04/27 02:16:52;;;;;;;;;;;6.40;27.70;;;;;;5042968;28;20269;-80
2021/04/27 02:19:21;;;;;;;;;;;6.30;27.70;;;;;;5056978;28;19967;-81
2021/04/27 02:21:47;;;;;;;;;;;6.30;27.80;;;;;;5058144;28;19932;-81
2021/04/27 02:24:13;;;;;;;;;;;6.30;27.80;;;;;;5058780;28;19916;-81
2021/04/27 02:26:38;;;;;;;;;;;6.20;27.80;;;;;;5043952;28;19913;-80
2021/04/27 02:29:04;;;;;;;;;;;6.20;27.80;;;;;;5046411;28;19913;-81
2021/04/27 02:31:31;;;;;;;;;;;6.20;27.90;;;;;;5056918;28;19917;-81
2021/04/27 02:33:57;;;;;;;;;;;6.20;27.90;;;;;;5056560;28;19916;-80
2021/04/27 02:36:23;;;;;;;;;;;6.20;28.00;;;;;;5057308;28;20339;-80
2021/04/27 02:38:48;;;;;;;;;;;6.20;28.00;;;;;;5057572;28;19912;-81
2021/04/27 02:41:14;;;;;;;;;;;6.20;28.00;;;;;;5056936;28;19967;-80
2021/04/27 02:43:40;;;;;;;;;;;6.20;28.00;;;;;;5056589;28;19931;-80
2021/04/27 02:46:06;;;;;;;;;;;6.10;28.00;;;;;;5057855;28;19913;-81
2021/04/27 02:48:31;;;;;;;;;;;6.10;28.00;;;;;;5055752;28;19952;-81
2021/04/27 02:50:59;;;;;;;;;;;6.10;28.00;;;;;;5058016;28;19917;-80
2021/04/27 02:53:25;;;;;;;;;;;6.10;28.10;;;;;;5053871;28;19913;-81
2021/04/27 02:55:50;;;;;;;;;;;6.00;28.10;;;;;;5056727;28;19913;-79
2021/04/27 02:58:16;;;;;;;;;;;6.00;28.10;;;;;;5055613;28;20329;-80
2021/04/27 03:00:42;;;;;;;;;;;6.00;28.10;;;;;;5055517;28;19919;-81
2021/04/27 03:03:08;;;;;;;;;;;6.00;28.10;;;;;;5058886;28;19968;-80
2021/04/27 03:05:36;;;;;;;;;;;6.00;28.20;;;;;;5059497;28;19919;-80
2021/04/27 03:08:02;;;;;;;;;;;6.00;28.20;;;;;;5052181;28;19980;-80
2021/04/27 03:10:27;;;;;;;;;;;6.00;28.20;;;;;;5052675;28;19960;-80
2021/04/27 03:12:53;;;;;;;;;;;5.90;28.20;;;;;;5056474;28;20280;-81
2021/04/27 03:15:19;;;;;;;;;;;5.90;28.30;;;;;;5057683;28;19912;-80
2021/04/27 03:17:44;;;;;;;;;;;5.90;28.30;;;;;;5057023;28;19972;-80
2021/04/27 03:20:11;;;;;;;;;;;5.90;28.30;;;;;;5056197;28;19966;-81
2021/04/27 03:22:36;;;;;;;;;;;5.90;28.40;;;;;;5055552;28;19912;-78
2021/04/27 03:25:03;;;;;;;;;;;5.80;28.30;;;;;;5053447;28;19920;-80
2021/04/27 03:27:28;;;;;;;;;;;5.80;28.40;;;;;;5053161;28;19940;-79
2021/04/27 03:29:54;;;;;;;;;;;5.80;28.40;;;;;;5057104;28;19932;-80
2021/04/27 03:32:19;;;;;;;;;;;5.70;28.40;;;;;;5055546;28;19948;-80
2021/04/27 03:34:45;;;;;;;;;;;5.70;28.40;;;;;;5056217;28;19994;-80
2021/04/27 03:37:11;;;;;;;;;;;5.70;28.40;;;;;;5052913;28;19921;-81
2021/04/27 03:39:36;;;;;;;;;;;5.60;28.40;;;;;;5051256;28;19913;-81
2021/04/27 03:42:03;;;;;;;;;;;5.50;28.40;;;;;;5056445;28;19909;-79
2021/04/27 03:44:28;;;;;;;;;;;5.40;28.40;;;;;;5057550;28;19932;-81
2021/04/27 03:46:53;;;;;;;;;;;5.30;28.40;;;;;;5056901;28;19917;-80
2021/04/27 03:49:19;;;;;;;;;;;5.30;28.50;;;;;;5056632;28;19962;-81
2021/04/27 03:51:44;;;;;;;;;;;5.20;28.50;;;;;;5056691;28;19923;-80
2021/04/27 03:54:10;;;;;;;;;;;5.20;28.60;;;;;;5055304;28;20296;-81
2021/04/27 03:56:36;;;;;;;;;;;5.20;28.60;;;;;;5056891;28;20254;-82
2021/04/27 03:59:01;;;;;;;;;;;5.20;28.60;;;;;;5055012;28;20324;-80
2021/04/27 04:01:28;;;;;;;;;;;5.20;28.70;;;;;;5054963;28;20046;-80
2021/04/27 04:03:53;;;;;;;;;;;5.20;28.70;;;;;;5055493;28;19909;-81
2021/04/27 04:06:18;;;;;;;;;;;5.20;28.80;;;;;;5057548;28;19920;-80
2021/04/27 04:08:44;;;;;;;;;;;5.20;29.00;;;;;;5056631;28;19916;-80
2021/04/27 04:11:10;;;;;;;;;;;5.20;29.10;;;;;;5052329;28;19925;-80
2021/04/27 04:13:35;;;;;;;;;;;5.20;29.20;;;;;;5054802;28;20407;-80
2021/04/27 04:16:01;;;;;;;;;;;5.20;29.40;;;;;;5053314;28;19917;-81
2021/04/27 04:18:26;;;;;;;;;;;5.20;29.50;;;;;;5054700;28;20493;-81
2021/04/27 04:20:52;;;;;;;;;;;5.20;29.60;;;;;;5054297;28;19913;-81
2021/04/27 04:23:18;;;;;;;;;;;5.30;29.70;;;;;;5055318;28;19939;-82
2021/04/27 04:25:43;;;;;;;;;;;5.20;29.70;;;;;;5049112;28;19992;-82
2021/04/27 04:28:10;;;;;;;;;;;5.30;29.70;;;;;;5054661;28;19913;-80
2021/04/27 04:30:36;;;;;;;;;;;5.30;29.70;;;;;;5057011;28;19944;-81
2021/04/27 04:33:01;;;;;;;;;;;5.30;29.70;;;;;;5053920;28;19920;-79
2021/04/27 04:35:28;;;;;;;;;;;5.40;29.80;;;;;;5056926;28;19909;-81
2021/04/27 04:37:53;;;;;;;;;;;5.40;29.90;;;;;;5053947;28;19913;-81
2021/04/27 04:40:19;;;;;;;;;;;5.40;29.90;;;;;;5056903;28;19915;-81
2021/04/27 04:42:44;;;;;;;;;;;5.50;30.00;;;;;;5054920;28;19913;-80
2021/04/27 04:45:13;;;;;;;;;;;5.50;30.00;;;;;;5057510;28;20003;-81
2021/04/27 04:47:39;;;;;;;;;;;5.60;30.00;;;;;;5055433;28;19952;-80
2021/04/27 04:50:05;;;;;;;;;;;5.60;30.00;;;;;;5056044;28;19920;-80
2021/04/27 04:52:30;;;;;;;;;;;5.70;30.10;;;;;;5054937;28;19921;-79
2021/04/27 04:54:56;;;;;;;;;;;5.70;30.10;;;;;;5054748;28;19939;-80
2021/04/27 04:57:21;;;;;;;;;;;5.80;30.30;;;;;;5056872;28;20353;-80
2021/04/27 04:59:47;;;;;;;;;;;5.90;30.40;;;;;;5054458;28;19913;-81
2021/04/27 05:02:13;;;;;;;;;;;5.90;30.50;;;;;;5056738;28;19967;-80
2021/04/27 05:04:38;;;;;;;;;;;6.00;30.50;;;;;;5055864;28;19913;-81
2021/04/27 05:07:07;;;;;;;;;;;6.10;30.60;;;;;;5056622;28;19966;-81
2021/04/27 05:09:32;;;;;;;;;;;6.10;30.80;;;;;;5056023;28;19936;-81
2021/04/27 05:11:59;;;;;;;;;;;6.20;31.00;;;;;;5059532;28;20171;-79
2021/04/27 05:14:24;;;;;;;;;;;6.30;31.10;;;;;;5054561;28;19932;-80
2021/04/27 05:16:50;;;;;;;;;;;6.30;31.50;;;;;;5048148;28;19913;-81
2021/04/27 05:19:16;;;;;;;;;;;6.50;31.80;;;;;;5059832;28;19958;-80
2021/04/27 05:21:41;;;;;;;;;;;7.10;32.10;;;;;;5059487;28;20030;-81
2021/04/27 05:24:07;;;;;;;;;;;9.20;32.30;;;;;;5058608;28;19963;-81
2021/04/27 05:26:32;;;;;;;;;;;12.70;30.40;;;;;;5051396;28;20355;-80
2021/04/27 05:28:58;;;;;;;;;;;15.60;28.60;;;;;;5049079;28;20326;-83
2021/04/27 05:31:23;;;;;;;;;;;18.00;27.10;;;;;;5059536;28;19975;-82
2021/04/27 05:33:49;;;;;;;;;;;20.00;26.10;;;;;;5060473;28;19913;-82
2021/04/27 05:36:14;;;;;;;;;;;21.60;25.60;;;;;;5060248;28;20471;-82
2021/04/27 05:38:39;;;;;;;;;;;23.10;25.20;;;;;;5060251;28;20375;-82
2021/04/27 05:41:05;;;;;;;;;;;24.60;24.80;;;;;;5060236;28;19916;-79
2021/04/27 05:43:30;;;;;;;;;;;25.70;24.30;;;;;;5061222;28;19921;-82
2021/04/27 05:45:56;;;;;;;;;;;26.50;23.90;;;;;;5044957;28;19936;-82
2021/04/27 05:48:21;;;;;;;;;;;27.70;23.60;;;;;;5042778;28;20012;-83
2021/04/27 05:50:47;;;;;;;;;;;28.80;23.10;;;;;;5046327;28;19913;-83
2021/04/27 05:53:12;;;;;;;;;;;30.00;22.60;;;;;;5053512;28;19909;-83
2021/04/27 05:55:40;;;;;;;;;;;31.40;22.20;;;;;;5068410;28;19912;-84
2021/04/27 05:58:06;;;;;;;;;;;33.10;21.60;;;;;;5064489;28;20352;-83
2021/04/27 06:00:32;;;;;;;;;;;34.60;20.80;;;;;;5046561;28;19922;-82
2021/04/27 06:03:00;;;;;;;;;;;36.30;20.30;;;;;;5059070;28;19912;-84
2021/04/27 06:05:25;;;;;;;;;;;37.60;19.60;;;;;;5065048;28;19972;-84
2021/04/27 06:07:51;;;;;;;;;;;38.70;19.00;;;;;;5064833;28;19913;-85
2021/04/27 06:10:16;;;;;;;;;;;39.70;18.70;;;;;;5064722;28;19912;-84
2021/04/27 06:12:42;;;;;;;;;;;40.60;18.30;;;;;;5063343;28;19917;-84
2021/04/27 06:15:07;;;;;;;;;;;41.40;18.10;;;;;;5066890;28;19916;-86
2021/04/27 06:17:35;;;;;;;;;;;41.90;17.60;;;;;;5065774;28;19976;-85
2021/04/27 06:20:02;;;;;;;;;;;42.50;17.50;;;;;;5051360;28;19980;-83
2021/04/27 06:22:27;;;;;;;;;;;43.20;17.40;;;;;;5057973;28;19908;-80
2021/04/27 06:24:53;;;;;;;;;;;43.90;17.00;;;;;;5060449;28;19994;-85
2021/04/27 06:27:18;;;;;;;;;;;44.20;16.80;;;;;;5052930;28;19917;-85
2021/04/27 06:29:45;;;;;;;;;;;44.40;16.60;;;;;;5062474;28;20055;-85
2021/04/27 06:32:10;;;;;;;;;;;44.60;16.40;;;;;;5066037;28;20007;-82
2021/04/27 06:34:36;;;;;;;;;;;44.70;16.20;;;;;;5065549;28;19959;-82
2021/04/27 06:37:04;;;;;;;;;;;45.10;16.20;;;;;;5061079;28;19927;-84
2021/04/27 06:39:29;;;;;;;;;;;45.50;15.80;;;;;;5050587;28;19936;-84
2021/04/27 06:41:55;;;;;;;;;;;45.60;15.70;;;;;;5054167;28;19921;-84
2021/04/27 06:44:20;;;;;;;;;;;45.70;15.50;;;;;;5061099;28;19917;-83
2021/04/27 06:46:46;;;;;;;;;;;45.60;15.40;;;;;;5056162;28;19920;-84
2021/04/27 06:49:11;;;;;;;;;;;45.80;15.30;;;;;;5061355;28;19915;-83
2021/04/27 06:51:36;;;;;;;;;;;45.90;15.20;;;;;;5052402;28;19921;-83
2021/04/27 06:54:02;;;;;;;;;;;46.10;15.10;;;;;;5042094;28;19959;-83
2021/04/27 06:56:27;;;;;;;;;;;46.00;14.70;;;;;;5060737;28;19935;-83
2021/04/27 06:58:53;;;;;;;;;;;45.80;14.60;;;;;;5063081;28;19919;-83
2021/04/27 07:01:18;;;;;;;;;;;46.00;14.40;;;;;;5061077;28;19980;-83
2021/04/27 07:03:48;;;;;;;;;;;45.90;13.80;;;;;;5055885;28;20269;-83
2021/04/27 07:06:14;;;;;;;;;;;45.50;13.60;;;;;;5054503;28;19960;-82
2021/04/27 07:08:39;;;;;;;;;;;45.20;13.50;;;;;;5053762;28;19917;-86
2021/04/27 07:11:10;;;;;;;;;;;45.10;13.40;;;;;;5063209;28;19913;-84
2021/04/27 07:13:36;;;;;;;;;;;45.60;13.80;;;;;;5045013;28;20442;-83
2021/04/27 07:16:02;;;;;;;;;;;46.20;13.80;;;;;;5057884;28;19916;-83
2021/04/27 07:18:27;;;;;;;;;;;46.70;13.50;;;;;;5058947;28;19916;-84
2021/04/27 07:20:53;;;;;;;;;;;46.30;13.00;;;;;;5056124;28;19917;-83
2021/04/27 07:23:18;;;;;;;;;;;45.60;13.10;;;;;;5048778;28;19932;-83
2021/04/27 07:25:44;;;;;;;;;;;45.30;13.30;;;;;;5059482;28;19963;-83
2021/04/27 07:28:09;;;;;;;;;;;45.70;13.40;;;;;;5060776;28;19913;-84
2021/04/27 07:30:35;;;;;;;;;;;45.80;13.20;;;;;;5056216;28;19913;-83
2021/04/27 07:33:01;;;;;;;;;;;45.80;13.20;;;;;;5054649;28;19913;-83
2021/04/27 07:35:27;;;;;;;;;;;45.60;13.30;;;;;;5057244;28;19979;-84
2021/04/27 07:37:52;;;;;;;;;;;46.20;13.40;;;;;;5050068;28;20385;-84
2021/04/27 07:40:18;;;;;;;;;;;46.30;13.30;;;;;;5060929;28;20004;-84
2021/04/27 07:42:43;;;;;;;;;;;46.10;13.10;;;;;;5063367;28;19913;-84
2021/04/27 07:45:10;;;;;;;;;;;46.10;13.10;;;;;;5056255;28;19917;-84
2021/04/27 07:47:35;;;;;;;;;;;45.60;12.70;;;;;;5058114;28;19913;-84
2021/04/27 07:50:02;;;;;;;;;;;45.30;12.70;;;;;;5041025;28;20368;-85
2021/04/27 07:52:29;;;;;;;;;;;45.20;12.60;;;;;;5056205;28;19923;-83
2021/04/27 07:54:54;;;;;;;;;;;44.90;12.40;;;;;;5053296;28;19935;-83
2021/04/27 07:57:19;;;;;;;;;;;44.70;12.50;;;;;;5045372;28;19917;-82
2021/04/27 07:59:45;;;;;;;;;;;44.70;12.40;;;;;;5043515;28;19913;-83
2021/04/27 08:02:11;;;;;;;;;;;44.40;12.50;;;;;;5052001;28;19921;-83
2021/04/27 08:04:36;;;;;;;;;;;44.70;12.70;;;;;;5058629;28;20008;-83
2021/04/27 08:07:02;;;;;;;;;;;44.50;12.50;;;;;;5053567;28;19952;-85
2021/04/27 08:09:27;;;;;;;;;;;44.20;12.40;;;;;;5050886;28;20421;-83
2021/04/27 08:11:53;;;;;;;;;;;43.70;12.40;;;;;;5058403;28;20007;-80
2021/04/27 08:14:19;;;;;;;;;;;43.50;12.40;;;;;;5046902;28;19996;-83
2021/04/27 08:16:45;;;;;;;;;;;43.30;12.60;;;;;;5043733;28;20401;-83
2021/04/27 08:19:10;;;;;;;;;;;43.30;12.70;;;;;;5055943;28;19916;-83
2021/04/27 08:21:37;;;;;;;;;;;43.50;12.90;;;;;;5056872;28;20016;-84
2021/04/27 08:24:03;;;;;;;;;;;43.70;13.00;;;;;;5055271;28;20024;-82
2021/04/27 08:26:28;;;;;;;;;;;43.70;12.70;;;;;;5059501;28;19940;-83
2021/04/27 08:28:54;;;;;;;;;;;43.20;12.70;;;;;;5057368;28;19913;-82
2021/04/27 08:31:19;;;;;;;;;;;42.60;12.70;;;;;;5057618;28;20076;-83
2021/04/27 08:33:47;;;;;;;;;;;42.10;12.60;;;;;;5057186;28;20008;-83
2021/04/27 08:36:13;;;;;;;;;;;42.10;12.70;;;;;;5051284;28;19919;-86
2021/04/27 08:38:39;;;;;;;;;;;42.20;12.70;;;;;;5047482;28;19948;-85
2021/04/27 08:41:05;;;;;;;;;;;42.00;12.70;;;;;;5049562;28;20297;-83
2021/04/27 08:43:30;;;;;;;;;;;42.00;12.90;;;;;;5060815;28;19923;-84
2021/04/27 08:45:56;;;;;;;;;;;42.20;13.00;;;;;;5063680;28;19917;-84
2021/04/27 08:48:22;;;;;;;;;;;41.80;12.80;;;;;;5063095;28;19920;-84
2021/04/27 08:50:48;;;;;;;;;;;41.40;13.00;;;;;;5062426;28;19920;-86
2021/04/27 08:53:14;;;;;;;;;;;42.00;13.30;;;;;;5064961;28;19912;-85
2021/04/27 08:55:40;;;;;;;;;;;42.40;13.50;;;;;;5062108;28;19912;-86
2021/04/27 08:58:09;;;;;;;;;;;42.40;13.20;;;;;;5059081;28;19915;-85
2021/04/27 09:00:35;;;;;;;;;;;41.90;13.20;;;;;;5065364;28;19913;-84
2021/04/27 09:03:02;;;;;;;;;;;41.50;13.20;;;;;;5061650;28;19923;-83
2021/04/27 09:05:29;;;;;;;;;;;41.00;13.20;;;;;;5063360;28;19944;-84
2021/04/27 09:07:55;;;;;;;;;;;40.40;13.30;;;;;;5062522;28;19917;-84
2021/04/27 09:10:23;;;;;;;;;;;40.00;13.40;;;;;;5064138;28;19961;-83
2021/04/27 09:12:50;;;;;;;;;;;40.20;13.60;;;;;;5057165;28;19920;-82
2021/04/27 09:15:22;;;;;;;;;;;40.70;14.10;;;;;;5061358;28;19913;-84
2021/04/27 09:17:48;;;;;;;;;;;41.10;13.70;;;;;;5058794;28;19913;-83
2021/04/27 09:20:13;;;;;;;;;;;41.60;13.70;;;;;;5058224;28;20666;-83
2021/04/27 09:22:40;;;;;;;;;;;41.60;13.60;;;;;;5050947;28;19923;-84
2021/04/27 09:25:07;;;;;;;;;;;41.20;13.80;;;;;;5058665;28;19974;-84
2021/04/27 09:27:37;;;;;;;;;;;41.00;13.80;;;;;;5052515;28;19913;-82
2021/04/27 09:30:19;;;;;;;;;;;40.50;13.90;;;;;;5062769;28;19920;-84
2021/04/27 09:32:51;;;;;;;;;;;39.60;14.60;;;;;;5068009;28;20424;-82
2021/04/27 09:35:29;;;;;;;;;;;38.60;14.50;;;;;;5060780;28;19920;-83
2021/04/27 09:38:07;;;;;;;;;;;38.70;14.50;;;;;;5059336;28;19913;-83
2021/04/27 09:40:42;;;;;;;;;;;38.60;14.50;;;;;;5060410;28;20534;-84
2021/04/27 09:43:08;;;;;;;;;;;38.50;14.30;;;;;;5051482;28;19916;-84
2021/04/27 09:45:40;;;;;;;;;;;38.70;14.50;;;;;;5047844;28;19952;-83
2021/04/27 09:48:07;;;;;;;;;;;38.40;14.50;;;;;;5055852;28;19912;-85
2021/04/27 09:50:33;;;;;;;;;;;37.60;14.60;;;;;;5058977;28;19913;-84
2021/04/27 09:52:58;;;;;;;;;;;37.10;14.70;;;;;;5058248;28;19913;-84
2021/04/27 09:55:25;;;;;;;;;;;36.20;14.80;;;;;;5051131;28;20313;-83
2021/04/27 09:57:52;;;;;;;;;;;36.30;14.80;;;;;;5053329;28;20041;-84
2021/04/27 10:00:28;;;;;;;;;;;36.50;14.50;;;;;;5054979;28;19913;-86
2021/04/27 10:02:54;;;;;;;;;;;35.90;14.40;;;;;;5054881;28;19924;-81
2021/04/27 10:05:20;;;;;;;;;;;36.40;14.80;;;;;;5057430;28;19909;-86
2021/04/27 10:07:46;;;;;;;;;;;36.30;14.70;;;;;;5049291;28;19959;-85
2021/04/27 10:10:12;;;;;;;;;;;36.00;14.70;;;;;;5059634;28;19917;-86
2021/04/27 10:12:38;;;;;;;;;;;36.20;14.50;;;;;;5050395;28;19914;-84
2021/04/27 10:15:04;;;;;;;;;;;36.30;14.50;;;;;;5064023;28;19913;-84
2021/04/27 10:17:30;;;;;;;;;;;34.90;14.40;;;;;;5052100;28;19913;-82
2021/04/27 10:19:56;;;;;;;;;;;33.70;14.90;;;;;;5050374;28;19952;-81
2021/04/27 10:22:21;;;;;;;;;;;33.10;14.70;;;;;;5052462;28;19927;-83
2021/04/27 10:24:47;;;;;;;;;;;33.10;15.00;;;;;;5052608;28;20392;-82
2021/04/27 10:27:13;;;;;;;;;;;34.20;15.10;;;;;;5054107;28;19913;-82
2021/04/27 10:29:39;;;;;;;;;;;34.60;14.70;;;;;;5048979;28;19913;-84
2021/04/27 10:32:16;;;;;;;;;;;34.90;14.80;;;;;;5054345;28;19913;-84
2021/04/27 10:35:02;;;;;;;;;;;34.30;14.60;;;;;;5056166;28;19913;-84
2021/04/27 10:37:29;;;;;;;;;;;33.60;14.90;;;;;;5043482;28;19966;-84
2021/04/27 10:39:54;;;;;;;;;;;33.80;15.00;;;;;;5052547;28;19927;-83
2021/04/27 10:42:24;;;;;;;;;;;33.80;14.70;;;;;;5056480;28;19920;-84
2021/04/27 10:44:51;;;;;;;;;;;34.50;14.90;;;;;;5055313;28;19914;-85
2021/04/27 10:47:17;;;;;;;;;;;35.30;14.70;;;;;;5045476;28;19912;-83
2021/04/27 10:49:44;;;;;;;;;;;35.80;14.60;;;;;;5053276;28;19920;-84
2021/04/27 10:52:24;;;;;;;;;;;36.30;14.30;;;;;;5057813;28;19995;-84
2021/04/27 10:54:50;;;;;;;;;;;36.20;14.30;;;;;;5051175;28;19917;-83
2021/04/27 10:57:17;;;;;;;;;;;35.70;14.10;;;;;;5059264;28;19975;-82
2021/04/27 10:59:59;;;;;;;;;;;35.00;14.50;;;;;;5046266;28;19940;-82
2021/04/27 11:02:25;;;;;;;;;;;35.20;14.60;;;;;;5052694;28;19948;-82
2021/04/27 11:04:52;;;;;;;;;;;35.10;14.40;;;;;;5059619;28;19921;-83
2021/04/27 11:07:23;;;;;;;;;;;34.60;14.50;;;;;;5057788;28;19920;-84
2021/04/27 11:09:57;;;;;;;;;;;33.50;14.70;;;;;;5056418;28;20146;-84
2021/04/27 11:12:29;;;;;;;;;;;33.60;15.00;;;;;;5061138;28;19913;-85
2021/04/27 11:15:02;;;;;;;;;;;33.50;14.80;;;;;;5056521;28;20296;-84
2021/04/27 11:17:29;;;;;;;;;;;33.60;15.00;;;;;;5052835;28;20284;-84
2021/04/27 11:19:54;;;;;;;;;;;32.90;14.80;;;;;;5055813;28;20392;-84
2021/04/27 11:22:23;;;;;;;;;;;32.40;14.80;;;;;;5055433;28;19947;-84
2021/04/27 11:24:48;;;;;;;;;;;32.30;14.90;;;;;;5048346;28;19920;-84
2021/04/27 11:27:33;;;;;;;;;;;32.30;15.50;;;;;;5056358;28;19909;-83
2021/04/27 11:30:01;;;;;;;;;;;31.90;14.80;;;;;;5037762;28;20336;-84
2021/04/27 11:32:30;;;;;;;;;;;30.40;14.80;;;;;;5060051;28;19958;-85
2021/04/27 11:35:01;;;;;;;;;;;30.20;15.30;;;;;;5060238;28;19913;-84
2021/04/27 11:37:32;;;;;;;;;;;30.70;15.30;;;;;;5060934;28;19916;-84
2021/04/27 11:39:58;;;;;;;;;;;31.10;15.10;;;;;;5059367;28;20671;-83
2021/04/27 11:42:25;;;;;;;;;;;31.30;15.10;;;;;;5052473;28;20446;-84
2021/04/27 11:44:54;;;;;;;;;;;31.50;15.30;;;;;;5056999;28;20014;-84
2021/04/27 11:47:19;;;;;;;;;;;32.30;15.80;;;;;;5060331;28;19920;-85
2021/04/27 11:49:45;;;;;;;;;;;32.50;15.10;;;;;;5060276;28;20404;-84
2021/04/27 11:52:10;;;;;;;;;;;32.80;15.20;;;;;;5061581;28;19959;-85
2021/04/27 11:54:36;;;;;;;;;;;32.90;15.50;;;;;;5059194;28;20055;-83
2021/04/27 11:57:02;;;;;;;;;;;32.60;14.80;;;;;;5059178;28;19917;-85
2021/04/27 11:59:28;;;;;;;;;;;32.20;14.90;;;;;;5050981;28;19920;-83
2021/04/27 12:02:00;;;;;;;;;;;32.00;14.80;;;;;;5041358;28;19916;-84
2021/04/27 12:04:25;;;;;;;;;;;32.20;15.10;;;;;;5046931;28;19948;-83
2021/04/27 12:06:58;;;;;;;;;;;32.40;15.00;;;;;;5060623;28;20442;-86
2021/04/27 12:09:23;;;;;;;;;;;32.10;15.00;;;;;;5058357;28;20491;-84
2021/04/27 12:11:52;;;;;;;;;;;32.40;15.20;;;;;;5083939;22;19944;-79
2021/04/27 12:14:17;;;;;;;;;;;32.60;15.10;;;;;;5064363;28;20008;-80
2021/04/27 12:16:44;;;;;;;;;;;32.40;15.10;;;;;;5048126;28;19967;-80
2021/04/27 12:19:09;;;;;;;;;;;32.30;15.10;;;;;;5045842;28;19913;-80
2021/04/27 12:21:45;;;;;;;;;;;32.60;15.30;;;;;;5039579;28;19991;-80
2021/04/27 12:24:14;;;;;;;;;;;32.30;15.10;;;;;;5034269;28;19961;-79
2021/04/27 12:26:42;;;;;;;;;;;31.90;15.30;;;;;;5007739;28;19924;-80
2021/04/27 12:29:11;;;;;;;;;;;31.80;15.30;;;;;;5044144;28;19913;-81
2021/04/27 12:31:37;;;;;;;;;;;31.60;15.40;;;;;;5040456;28;19921;-80
2021/04/27 12:34:06;;;;;;;;;;;31.60;16.00;;;;;;5041543;28;19913;-79
2021/04/27 12:36:35;;;;;;;;;;;31.10;15.40;;;;;;5027245;28;20289;-80
2021/04/27 12:39:07;;;;;;;;;;;30.40;15.40;;;;;;5025217;28;19952;-80
2021/04/27 12:41:34;;;;;;;;;;;30.20;15.70;;;;;;5043612;28;20004;-80
2021/04/27 12:44:23;;;;;;;;;;;29.90;15.80;;;;;;5039794;28;19997;-80
2021/04/27 12:46:51;;;;;;;;;;;29.70;15.80;;;;;;5004191;28;19914;-80
2021/04/27 12:49:22;;;;;;;;;;;29.60;15.90;;;;;;5034454;28;19953;-81
2021/04/27 12:51:52;;;;;;;;;;;29.40;15.90;;;;;;5035215;28;19956;-81
2021/04/27 12:54:25;;;;;;;;;;;29.00;16.00;;;;;;5023013;28;20313;-80
2021/04/27 12:57:06;;;;;;;;;;;28.50;16.10;;;;;;5013592;28;19914;-80
2021/04/27 12:59:39;;;;;;;;;;;28.40;16.30;;;;;;5029215;28;19947;-81
2021/04/27 13:02:08;;;;;;;;;;;28.30;16.40;;;;;;5024697;28;20020;-80
2021/04/27 13:04:40;;;;;;;;;;;28.30;16.50;;;;;;5043392;28;19978;-80
2021/04/27 13:07:06;;;;;;;;;;;28.20;16.50;;;;;;5043153;28;20340;-80
2021/04/27 13:09:39;;;;;;;;;;;28.00;16.60;;;;;;5042365;28;19920;-80
2021/04/27 13:12:05;;;;;;;;;;;27.80;16.70;;;;;;5043291;28;19935;-80
2021/04/27 13:14:32;;;;;;;;;;;27.50;16.80;;;;;;5025402;28;19917;-80
2021/04/27 13:16:58;;;;;;;;;;;27.50;16.90;;;;;;5043525;28;19905;-80
2021/04/27 13:19:24;;;;;;;;;;;27.40;16.90;;;;;;5042478;28;19913;-80
2021/04/27 13:22:18;;;;;;;;;;;27.70;17.00;;;;;;5042173;28;19936;-80
2021/04/27 13:24:46;;;;;;;;;;;28.00;17.00;;;;;;5020434;28;19910;-80
2021/04/27 13:27:13;;;;;;;;;;;28.20;17.00;;;;;;5014842;28;20380;-80
2021/04/27 13:29:39;;;;;;;;;;;27.70;16.90;;;;;;5018247;28;19905;-80
2021/04/27 13:32:15;;;;;;;;;;;27.50;17.00;;;;;;5035565;28;19909;-80
2021/04/27 13:34:43;;;;;;;;;;;27.10;17.00;;;;;;5027288;28;19909;-80
2021/04/27 13:37:18;;;;;;;;;;;26.70;17.10;;;;;;5038450;28;19944;-80
2021/04/27 13:39:46;;;;;;;;;;;26.50;17.20;;;;;;5028381;28;19905;-80
2021/04/27 13:42:12;;;;;;;;;;;26.50;17.40;;;;;;5027081;28;19913;-80
2021/04/27 13:44:37;;;;;;;;;;;26.50;17.40;;;;;;5027387;28;19906;-80
2021/04/27 13:47:03;;;;;;;;;;;26.50;17.50;;;;;;5043605;28;20008;-80
2021/04/27 13:49:31;;;;;;;;;;;26.40;17.50;;;;;;5044422;28;20019;-80
2021/04/27 13:51:58;;;;;;;;;;;26.20;17.50;;;;;;5026155;28;19909;-80
2021/04/27 13:54:23;;;;;;;;;;;25.90;17.50;;;;;;5025158;28;19923;-80
2021/04/27 13:56:49;;;;;;;;;;;25.50;17.60;;;;;;5026743;28;19976;-80
2021/04/27 13:59:14;;;;;;;;;;;25.00;17.70;;;;;;5025422;28;19959;-80
2021/04/27 14:01:40;;;;;;;;;;;24.70;17.80;;;;;;5026492;28;19917;-80
2021/04/27 14:04:07;;;;;;;;;;;24.60;17.90;;;;;;5027133;28;19912;-80
2021/04/27 14:06:32;;;;;;;;;;;24.60;18.00;;;;;;5044344;28;19913;-80
2021/04/27 14:08:58;;;;;;;;;;;24.70;17.90;;;;;;5037138;28;19914;-80
2021/04/27 14:11:23;;;;;;;;;;;24.90;18.00;;;;;;5026971;28;19924;-81
2021/04/27 14:13:49;;;;;;;;;;;25.20;18.00;;;;;;5044840;28;19935;-80
2021/04/27 14:16:14;;;;;;;;;;;25.50;17.90;;;;;;5026820;28;19936;-81
2021/04/27 14:18:40;;;;;;;;;;;25.80;17.90;;;;;;5025938;28;20001;-79
2021/04/27 14:21:06;;;;;;;;;;;25.70;17.80;;;;;;5032012;28;19925;-80